Time;durP1;ratioP1;P1;durP2;ratioP2;P2;SDS_P1;SDS_P2;PMS_P1;PMS_P2;Temp;Humidity;BMP_temperature;BMP_pressure;BME280_temperature;BME280_humidity;BME280_pressure;Samples;Min_cycle;Max_cycle;Signal;HPM_P1;HPM_P2
2024/02/29 00:02:07;;;;;;;2.13;1.52;;;23.00;51.10;;;;;;5072342;28;20051;-41
2024/02/29 00:04:34;;;;;;;1.63;1.45;;;23.00;51.20;;;;;;5069522;28;20023;-39
2024/02/29 00:07:02;;;;;;;1.67;1.25;;;23.00;51.00;;;;;;5066758;28;20066;-40
2024/02/29 00:09:29;;;;;;;1.40;1.30;;;23.00;50.80;;;;;;5074599;28;20116;-40
2024/02/29 00:11:55;;;;;;;2.13;1.20;;;23.00;50.90;;;;;;5073380;28;20021;-39
2024/02/29 00:14:21;;;;;;;2.33;1.50;;;22.90;50.80;;;;;;5075464;28;20025;-42
2024/02/29 00:16:47;;;;;;;1.58;1.25;;;22.90;50.80;;;;;;5070451;28;20041;-44
2024/02/29 00:19:14;;;;;;;1.17;1.08;;;22.90;50.80;;;;;;5071783;28;20128;-43
2024/02/29 00:21:40;;;;;;;1.53;1.10;;;22.90;50.70;;;;;;5069718;28;20032;-42
2024/02/29 00:24:07;;;;;;;1.15;0.90;;;22.80;50.70;;;;;;5073070;28;20041;-41
2024/02/29 00:26:33;;;;;;;1.20;1.00;;;22.80;50.50;;;;;;5049708;28;20036;-42
2024/02/29 00:29:01;;;;;;;1.23;0.90;;;22.90;50.50;;;;;;5071894;28;20033;-42
2024/02/29 00:31:27;;;;;;;1.27;1.00;;;22.80;50.40;;;;;;5071262;28;20075;-45
2024/02/29 00:33:53;;;;;;;1.52;1.02;;;22.80;50.40;;;;;;5069826;28;20031;-41
2024/02/29 00:36:19;;;;;;;1.05;0.95;;;22.80;50.40;;;;;;5074716;28;20032;-43
2024/02/29 00:38:46;;;;;;;1.08;0.90;;;22.80;50.50;;;;;;5069402;28;20025;-41
2024/02/29 00:41:12;;;;;;;3.20;0.90;;;22.70;50.40;;;;;;5071752;28;20033;-42
2024/02/29 00:43:40;;;;;;;1.10;0.75;;;22.70;50.30;;;;;;5068678;28;20040;-42
2024/02/29 00:46:06;;;;;;;1.13;0.73;;;22.70;50.20;;;;;;5082128;28;20028;-43
2024/02/29 00:48:32;;;;;;;1.08;0.90;;;22.70;50.10;;;;;;5082048;28;20029;-43
2024/02/29 00:50:58;;;;;;;0.85;0.70;;;22.70;50.00;;;;;;5083180;28;20028;-44
2024/02/29 00:53:25;;;;;;;1.33;0.68;;;22.70;50.10;;;;;;5083334;28;20519;-42
2024/02/29 00:55:51;;;;;;;1.25;0.70;;;22.70;50.10;;;;;;5082428;28;20040;-42
2024/02/29 00:58:17;;;;;;;1.05;0.90;;;22.60;50.10;;;;;;5082198;28;20785;-41
2024/02/29 01:00:43;;;;;;;0.55;0.55;;;22.60;50.10;;;;;;5083302;28;20032;-41
2024/02/29 01:03:09;;;;;;;0.95;0.80;;;22.60;50.00;;;;;;5074334;28;20040;-43
2024/02/29 01:05:35;;;;;;;0.98;0.77;;;22.60;49.80;;;;;;5080098;28;20032;-42
2024/02/29 01:08:01;;;;;;;0.90;0.50;;;22.60;49.80;;;;;;5074855;28;20053;-41
2024/02/29 01:10:27;;;;;;;0.60;0.60;;;22.60;49.80;;;;;;5082899;28;20439;-41
2024/02/29 01:12:54;;;;;;;0.80;0.70;;;22.60;49.90;;;;;;5082460;28;20039;-42
2024/02/29 01:15:20;;;;;;;0.93;0.50;;;22.50;49.90;;;;;;5079792;28;20025;-42
2024/02/29 01:17:46;;;;;;;0.90;0.60;;;22.50;49.80;;;;;;5080681;28;20037;-42
2024/02/29 01:20:13;;;;;;;1.13;0.60;;;22.50;49.70;;;;;;5081858;28;20529;-42
2024/02/29 01:22:39;;;;;;;1.20;0.70;;;22.60;49.60;;;;;;5082475;28;20086;-42
2024/02/29 01:25:05;;;;;;;0.52;0.40;;;22.60;49.50;;;;;;5082410;28;20036;-41
2024/02/29 01:27:32;;;;;;;0.50;0.50;;;22.50;49.50;;;;;;5083037;28;20115;-42
2024/02/29 01:29:58;;;;;;;0.70;0.70;;;22.50;49.60;;;;;;5082195;28;20025;-40
2024/02/29 01:32:25;;;;;;;1.92;0.60;;;22.50;49.60;;;;;;5071464;28;20036;-43
2024/02/29 01:34:51;;;;;;;0.63;0.43;;;22.40;49.50;;;;;;5077824;28;20024;-40
2024/02/29 01:37:17;;;;;;;0.60;0.50;;;22.40;49.40;;;;;;5082347;28;20033;-42
2024/02/29 01:39:43;;;;;;;0.50;0.40;;;22.50;49.40;;;;;;5081530;28;20025;-42
2024/02/29 01:42:11;;;;;;;0.47;0.40;;;22.50;49.30;;;;;;5073635;28;20072;-41
2024/02/29 01:44:55;;;;;;;0.60;0.50;;;22.50;49.30;;;;;;5082140;28;20086;-41
2024/02/29 01:47:24;;;;;;;0.85;0.50;;;22.40;49.30;;;;;;5082516;28;20755;-41
2024/02/29 01:49:51;;;;;;;0.60;0.60;;;22.40;49.30;;;;;;5082140;28;20055;-42
2024/02/29 01:52:18;;;;;;;0.40;0.40;;;22.40;49.30;;;;;;5079522;28;20025;-42
2024/02/29 01:54:44;;;;;;;0.32;0.30;;;22.40;49.20;;;;;;5060997;28;20024;-42
2024/02/29 01:57:11;;;;;;;0.88;0.45;;;22.40;49.10;;;;;;5081748;28;20067;-41
2024/02/29 01:59:37;;;;;;;0.40;0.40;;;22.40;49.10;;;;;;5074503;28;20054;-42
2024/02/29 02:02:03;;;;;;;0.73;0.40;;;22.40;49.10;;;;;;5064067;28;20379;-41
2024/02/29 02:04:29;;;;;;;0.45;0.40;;;22.40;49.10;;;;;;5078657;28;20032;-42
2024/02/29 02:06:56;;;;;;;0.40;0.40;;;22.30;49.20;;;;;;5071497;28;20056;-39
2024/02/29 02:09:22;;;;;;;0.47;0.40;;;22.30;49.10;;;;;;5044242;28;20028;-41
2024/02/29 02:11:49;;;;;;;2.05;0.38;;;22.30;49.00;;;;;;5061761;28;20123;-40
2024/02/29 02:14:15;;;;;;;0.30;0.30;;;22.40;48.90;;;;;;5061175;28;20504;-40
2024/02/29 02:16:41;;;;;;;0.40;0.30;;;22.40;48.90;;;;;;5062564;28;20064;-41
2024/02/29 02:19:15;;;;;;;0.60;0.43;;;22.30;48.80;;;;;;5042240;28;20840;-41
2024/02/29 02:21:41;;;;;;;0.35;0.35;;;22.30;48.90;;;;;;5044244;28;20030;-41
2024/02/29 02:24:08;;;;;;;0.45;0.30;;;22.30;48.80;;;;;;5061304;28;20108;-42
2024/02/29 02:26:34;;;;;;;0.40;0.30;;;22.30;48.70;;;;;;5061982;28;20025;-42
2024/02/29 02:29:03;;;;;;;0.60;0.32;;;22.30;48.50;;;;;;5060987;28;20044;-39
2024/02/29 02:31:29;;;;;;;0.30;0.30;;;22.30;48.50;;;;;;5062198;28;20031;-42
2024/02/29 02:33:56;;;;;;;0.68;0.40;;;22.30;48.40;;;;;;5061207;28;20059;-37
2024/02/29 02:36:23;;;;;;;0.20;0.20;;;22.30;48.40;;;;;;5061709;28;20025;-43
2024/02/29 02:38:49;;;;;;;1.15;0.35;;;22.20;48.50;;;;;;5062057;28;20041;-41
2024/02/29 02:41:15;;;;;;;0.47;0.30;;;22.20;48.30;;;;;;5060846;28;20032;-42
2024/02/29 02:43:44;;;;;;;0.50;0.35;;;22.20;48.20;;;;;;5061526;28;20041;-41
2024/02/29 02:46:11;;;;;;;0.82;0.38;;;22.30;48.20;;;;;;5061109;28;20029;-41
2024/02/29 02:48:37;;;;;;;0.40;0.25;;;22.30;48.10;;;;;;5061394;28;20036;-42
2024/02/29 02:51:03;;;;;;;0.75;0.50;;;22.20;48.10;;;;;;5060917;28;20025;-41
2024/02/29 02:53:29;;;;;;;0.30;0.28;;;22.20;48.20;;;;;;5054457;28;20029;-41
2024/02/29 02:55:55;;;;;;;0.20;0.20;;;22.20;48.10;;;;;;5061866;28;20021;-41
2024/02/29 02:58:21;;;;;;;0.32;0.32;;;22.20;48.00;;;;;;5061309;28;20040;-39
2024/02/29 03:00:47;;;;;;;0.40;0.20;;;22.20;47.90;;;;;;5061477;28;20040;-41
2024/02/29 03:03:14;;;;;;;0.40;0.20;;;22.20;47.90;;;;;;5060741;28;20051;-41
2024/02/29 03:05:40;;;;;;;0.35;0.30;;;22.20;47.90;;;;;;5061736;28;20131;-41
2024/02/29 03:08:07;;;;;;;0.30;0.30;;;22.20;47.90;;;;;;5060689;28;20060;-40
2024/02/29 03:10:33;;;;;;;0.30;0.20;;;22.10;47.90;;;;;;5061511;28;20025;-44
2024/02/29 03:13:00;;;;;;;0.70;0.40;;;22.10;47.80;;;;;;5060949;28;20056;-42
2024/02/29 03:15:26;;;;;;;0.40;0.30;;;22.10;47.70;;;;;;5061324;28;20067;-42
2024/02/29 03:17:55;;;;;;;0.25;0.20;;;22.20;47.70;;;;;;5061315;28;20044;-41
2024/02/29 03:20:22;;;;;;;0.32;0.30;;;22.20;47.70;;;;;;5064508;28;20027;-40
2024/02/29 03:22:48;;;;;;;0.60;0.20;;;22.20;47.70;;;;;;5065288;28;20821;-42
2024/02/29 03:25:15;;;;;;;0.30;0.20;;;22.10;47.70;;;;;;5060637;28;20124;-41
2024/02/29 03:27:41;;;;;;;0.57;0.20;;;22.10;47.70;;;;;;5063357;28;20051;-42
2024/02/29 03:30:08;;;;;;;0.30;0.27;;;22.10;47.70;;;;;;5065119;28;20186;-42
2024/02/29 03:32:34;;;;;;;0.10;0.10;;;22.10;47.60;;;;;;5065445;28;20021;-41
2024/02/29 03:35:05;;;;;;;0.30;0.30;;;22.10;47.60;;;;;;5064082;28;20426;-41
2024/02/29 03:37:31;;;;;;;0.22;0.20;;;22.10;47.50;;;;;;5060020;28;20029;-41
2024/02/29 03:39:57;;;;;;;0.50;0.30;;;22.10;47.50;;;;;;5062462;28;20017;-39
2024/02/29 03:42:23;;;;;;;0.17;0.17;;;22.00;47.60;;;;;;5064798;28;20192;-42
2024/02/29 03:44:49;;;;;;;0.73;0.30;;;22.00;47.50;;;;;;5064351;28;20032;-41
2024/02/29 03:47:16;;;;;;;0.40;0.20;;;22.10;47.50;;;;;;5061624;28;20033;-41
2024/02/29 03:49:43;;;;;;;0.55;0.20;;;22.10;47.40;;;;;;5064534;28;20060;-42
2024/02/29 03:52:09;;;;;;;0.50;0.38;;;22.10;47.40;;;;;;5063651;28;20029;-41
2024/02/29 03:54:35;;;;;;;0.28;0.28;;;22.10;47.40;;;;;;5062901;28;20043;-41
2024/02/29 03:57:01;;;;;;;0.20;0.20;;;22.00;47.40;;;;;;5061237;28;20032;-41
2024/02/29 03:59:28;;;;;;;0.25;0.25;;;22.00;47.30;;;;;;5064228;28;20017;-40
2024/02/29 04:01:55;;;;;;;0.32;0.20;;;22.00;47.30;;;;;;5064178;28;20055;-42
2024/02/29 04:04:22;;;;;;;0.30;0.20;;;22.10;47.30;;;;;;5061563;28;20041;-41
2024/02/29 04:06:48;;;;;;;0.28;0.20;;;22.10;47.30;;;;;;5063873;28;20041;-41
2024/02/29 04:09:14;;;;;;;1.60;0.30;;;22.10;47.80;;;;;;5064116;28;20064;-39
2024/02/29 04:11:40;;;;;;;0.27;0.20;;;22.00;47.30;;;;;;5064336;28;20084;-43
2024/02/29 04:14:07;;;;;;;0.60;0.30;;;22.00;47.20;;;;;;5063177;28;20666;-41
2024/02/29 04:16:36;;;;;;;0.22;0.20;;;22.00;47.20;;;;;;5063877;28;20050;-41
2024/02/29 04:19:05;;;;;;;0.32;0.20;;;22.00;47.10;;;;;;5063552;28;20040;-41
2024/02/29 04:21:32;;;;;;;0.20;0.10;;;22.10;47.20;;;;;;5063918;28;20025;-40
2024/02/29 04:23:58;;;;;;;;;;;22.10;47.20;;;;;;5063982;28;20072;-41
2024/02/29 04:26:24;;;;;;;0.28;0.15;;;22.10;47.10;;;;;;5063228;28;19916;-41
2024/02/29 04:28:51;;;;;;;0.43;0.20;;;22.00;47.10;;;;;;5056497;28;20029;-43
2024/02/29 04:31:17;;;;;;;0.30;0.20;;;22.00;47.10;;;;;;5062708;28;20084;-40
2024/02/29 04:33:46;;;;;;;0.65;0.20;;;22.00;47.10;;;;;;5063730;28;20028;-43
2024/02/29 04:36:12;;;;;;;0.35;0.20;;;22.10;47.10;;;;;;5063356;28;20036;-41
2024/02/29 04:38:38;;;;;;;0.45;0.20;;;22.00;47.10;;;;;;5063634;28;20040;-40
2024/02/29 04:41:04;;;;;;;0.32;0.20;;;22.00;47.00;;;;;;5063399;28;20029;-41
2024/02/29 04:43:30;;;;;;;0.32;0.20;;;22.00;47.10;;;;;;5062980;28;20063;-41
2024/02/29 04:45:57;;;;;;;0.88;0.20;;;22.00;47.10;;;;;;5063179;28;20071;-39
2024/02/29 04:48:23;;;;;;;0.28;0.20;;;22.00;47.10;;;;;;5063191;28;20020;-41
2024/02/29 04:50:49;;;;;;;1.23;0.20;;;22.00;47.10;;;;;;5057138;28;20018;-41
2024/02/29 04:53:15;;;;;;;0.22;0.20;;;22.10;47.10;;;;;;5059541;28;20041;-43
2024/02/29 04:55:42;;;;;;;0.20;0.20;;;22.00;47.00;;;;;;5063071;28;20051;-40
2024/02/29 04:58:08;;;;;;;0.20;0.20;;;22.00;47.00;;;;;;5060585;28;20052;-40
2024/02/29 05:00:34;;;;;;;0.43;0.30;;;22.00;47.00;;;;;;5063026;28;20088;-41
2024/02/29 05:03:00;;;;;;;0.73;0.20;;;21.90;47.00;;;;;;5055701;28;20072;-39
2024/02/29 05:05:27;;;;;;;0.30;0.20;;;22.00;47.00;;;;;;5063431;28;20036;-40
2024/02/29 05:07:54;;;;;;;;;;;22.00;46.90;;;;;;5081485;28;20049;-41
2024/02/29 05:10:21;;;;;;;0.35;0.25;;;22.00;47.00;;;;;;5082512;28;19918;-41
2024/02/29 05:12:50;;;;;;;;;;;22.00;46.90;;;;;;5082834;28;20054;-41
2024/02/29 05:15:22;;;;;;;1.10;0.20;;;22.00;46.90;;;;;;5082393;28;19916;-41
2024/02/29 05:17:49;;;;;;;0.20;0.10;;;21.90;46.90;;;;;;5083015;28;20020;-41
2024/02/29 05:20:15;;;;;;;0.33;0.10;;;22.00;46.90;;;;;;5082992;28;20052;-41
2024/02/29 05:22:42;;;;;;;0.50;0.20;;;22.00;46.90;;;;;;5081057;28;20328;-41
2024/02/29 05:25:09;;;;;;;0.50;0.35;;;22.00;46.90;;;;;;5081874;28;20445;-39
2024/02/29 05:27:36;;;;;;;0.30;0.13;;;22.00;46.90;;;;;;5083103;28;20048;-40
2024/02/29 05:30:03;;;;;;;1.95;0.20;;;21.90;46.90;;;;;;5081960;28;20058;-41
2024/02/29 05:32:30;;;;;;;1.67;0.30;;;21.90;46.90;;;;;;5076016;28;20060;-41
2024/02/29 05:34:56;;;;;;;2.78;0.20;;;21.90;47.00;;;;;;5081070;28;20040;-40
2024/02/29 05:37:22;;;;;;;1.85;0.50;;;22.00;46.90;;;;;;5077116;28;20032;-41
2024/02/29 05:39:48;;;;;;;4.25;0.68;;;22.00;47.10;;;;;;5074241;28;20020;-40
2024/02/29 05:42:14;;;;;;;2.63;0.50;;;22.00;47.40;;;;;;5081067;28;20032;-41
2024/02/29 05:44:40;;;;;;;3.10;0.85;;;22.00;47.50;;;;;;5075829;28;20039;-40
2024/02/29 05:47:07;;;;;;;7.40;0.88;;;21.90;47.80;;;;;;5082526;28;20033;-43
2024/02/29 05:49:34;;;;;;;6.32;1.25;;;22.00;48.70;;;;;;5081341;28;20032;-39
2024/02/29 05:52:00;;;;;;;3.38;0.88;;;22.00;50.20;;;;;;5077106;28;20029;-38
2024/02/29 05:54:27;;;;;;;3.78;0.90;;;22.00;49.70;;;;;;5082163;28;20028;-40
2024/02/29 05:56:55;;;;;;;3.72;0.98;;;22.00;49.60;;;;;;5079157;28;20039;-41
2024/02/29 05:59:21;;;;;;;5.68;0.85;;;22.00;49.70;;;;;;5081787;28;20036;-40
2024/02/29 06:01:48;;;;;;;3.22;0.57;;;22.00;49.70;;;;;;5076286;28;20029;-41
2024/02/29 06:04:14;;;;;;;2.10;0.55;;;22.00;49.50;;;;;;5075448;28;20041;-41
2024/02/29 06:06:40;;;;;;;3.55;0.40;;;22.00;49.10;;;;;;5081706;28;20070;-40
2024/02/29 06:09:06;;;;;;;2.58;0.35;;;22.10;48.80;;;;;;5079983;28;20041;-44
2024/02/29 06:11:32;;;;;;;2.38;0.55;;;22.10;48.60;;;;;;5081639;28;20036;-41
2024/02/29 06:13:59;;;;;;;1.13;0.30;;;22.00;48.60;;;;;;5080522;28;20032;-41
2024/02/29 06:16:27;;;;;;;1.13;0.30;;;22.00;48.60;;;;;;5081457;28;20024;-41
2024/02/29 06:18:53;;;;;;;0.28;0.20;;;21.90;48.60;;;;;;5081308;28;20028;-40
2024/02/29 06:21:19;;;;;;;1.30;0.40;;;22.00;48.50;;;;;;5080919;28;20017;-41
2024/02/29 06:23:45;;;;;;;0.57;0.20;;;22.00;48.30;;;;;;5080707;28;20036;-41
2024/02/29 06:26:11;;;;;;;0.35;0.20;;;22.00;48.20;;;;;;5080256;28;20043;-41
2024/02/29 06:28:38;;;;;;;0.85;0.52;;;22.00;48.20;;;;;;5080866;28;20032;-41
2024/02/29 06:31:04;;;;;;;1.00;0.20;;;22.00;48.20;;;;;;5080787;28;20033;-39
2024/02/29 06:33:30;;;;;;;0.55;0.30;;;21.90;48.20;;;;;;5073680;28;20033;-41
2024/02/29 06:35:56;;;;;;;0.25;0.20;;;22.00;48.00;;;;;;5081015;28;20029;-40
2024/02/29 06:38:22;;;;;;;1.08;0.28;;;22.00;47.90;;;;;;5080692;28;20116;-39
2024/02/29 06:40:48;;;;;;;0.63;0.35;;;22.00;47.80;;;;;;5080149;28;20084;-40
2024/02/29 06:43:14;;;;;;;0.57;0.40;;;22.00;47.80;;;;;;5067630;28;20696;-40
2024/02/29 06:45:45;;;;;;;0.95;0.30;;;22.00;47.80;;;;;;5067062;28;20029;-40
2024/02/29 06:48:11;;;;;;;0.70;0.20;;;21.90;47.80;;;;;;5067949;28;20033;-39
2024/02/29 06:50:37;;;;;;;0.20;0.20;;;21.90;47.70;;;;;;5068050;28;20075;-40
2024/02/29 06:53:03;;;;;;;1.13;0.25;;;22.00;47.60;;;;;;5065253;28;20044;-40
2024/02/29 06:55:29;;;;;;;0.20;0.20;;;22.00;47.60;;;;;;5072971;28;20031;-40
2024/02/29 06:57:56;;;;;;;0.40;0.20;;;22.00;47.60;;;;;;5069660;28;20114;-40
2024/02/29 07:00:24;;;;;;;0.38;0.28;;;21.90;47.50;;;;;;5051971;28;21135;-40
2024/02/29 07:02:50;;;;;;;0.20;0.20;;;21.90;47.50;;;;;;5065994;28;20143;-40
2024/02/29 07:05:17;;;;;;;0.35;0.20;;;21.90;47.50;;;;;;5067010;28;20039;-38
2024/02/29 07:07:45;;;;;;;0.22;0.20;;;21.90;47.30;;;;;;5008818;28;1652648;-39
2024/02/29 07:10:11;;;;;;;0.20;0.20;;;22.00;47.30;;;;;;5067651;28;20041;-41
2024/02/29 07:12:38;;;;;;;0.65;0.20;;;21.90;47.30;;;;;;5065557;28;20025;-39
2024/02/29 07:15:04;;;;;;;0.45;0.20;;;21.90;47.30;;;;;;5076412;28;20039;-41
2024/02/29 07:17:30;;;;;;;0.35;0.17;;;21.90;47.30;;;;;;5071316;28;20021;-40
2024/02/29 07:19:56;;;;;;;0.35;0.10;;;21.90;47.30;;;;;;5068653;28;20059;-37
2024/02/29 07:22:23;;;;;;;0.38;0.20;;;21.90;47.10;;;;;;5067803;28;20028;-40
2024/02/29 07:24:49;;;;;;;0.47;0.20;;;21.90;47.00;;;;;;5065790;28;20063;-42
2024/02/29 07:27:15;;;;;;;0.20;0.10;;;21.90;47.00;;;;;;5065554;28;20036;-39
2024/02/29 07:29:42;;;;;;;0.20;0.13;;;21.90;47.00;;;;;;5071835;28;20048;-41
2024/02/29 07:32:08;;;;;;;0.40;0.20;;;21.80;47.00;;;;;;5069050;28;20040;-40
2024/02/29 07:34:35;;;;;;;0.43;0.20;;;21.80;47.00;;;;;;5066829;28;20066;-40
2024/02/29 07:37:02;;;;;;;0.20;0.20;;;21.90;47.00;;;;;;5068217;28;20033;-39
2024/02/29 07:39:29;;;;;;;0.50;0.20;;;21.90;47.00;;;;;;5063416;28;20083;-41
2024/02/29 07:41:55;;;;;;;0.38;0.20;;;21.90;46.90;;;;;;5065361;28;20041;-39
2024/02/29 07:44:21;;;;;;;0.50;0.20;;;21.80;46.90;;;;;;5067775;28;20058;-41
2024/02/29 07:46:47;;;;;;;0.52;0.17;;;21.80;46.90;;;;;;5065020;28;20029;-41
2024/02/29 07:49:13;;;;;;;0.77;0.20;;;21.80;46.90;;;;;;5065057;28;20037;-40
2024/02/29 07:51:39;;;;;;;0.10;0.10;;;21.80;46.80;;;;;;5066977;28;20155;-39
2024/02/29 07:54:06;;;;;;;0.40;0.20;;;21.90;46.80;;;;;;5064487;28;20105;-41
2024/02/29 07:56:32;;;;;;;0.30;0.10;;;21.80;46.80;;;;;;5065142;28;20036;-39
2024/02/29 07:58:59;;;;;;;0.13;0.10;;;21.80;46.70;;;;;;5063295;28;20055;-41
2024/02/29 08:01:25;;;;;;;0.20;0.17;;;21.80;46.70;;;;;;5072241;28;20754;-41
2024/02/29 08:03:51;;;;;;;0.32;0.17;;;21.80;46.70;;;;;;5064455;28;20045;-40
2024/02/29 08:06:19;;;;;;;0.20;0.10;;;21.80;47.20;;;;;;5071659;28;20060;-40
2024/02/29 08:08:45;;;;;;;0.20;0.20;;;21.90;46.70;;;;;;5074155;28;20032;-41
2024/02/29 08:11:11;;;;;;;0.20;0.10;;;21.90;46.70;;;;;;5073378;28;20028;-41
2024/02/29 08:13:37;;;;;;;0.63;0.20;;;21.80;46.60;;;;;;5071683;28;20036;-39
2024/02/29 08:16:04;;;;;;;0.20;0.20;;;21.80;46.60;;;;;;5067967;28;20089;-39
2024/02/29 08:18:30;;;;;;;0.10;0.10;;;21.80;46.60;;;;;;5073080;28;20028;-40
2024/02/29 08:20:56;;;;;;;0.10;0.10;;;21.90;46.60;;;;;;5067679;28;20035;-40
2024/02/29 08:23:22;;;;;;;0.10;0.10;;;21.80;46.60;;;;;;5069951;28;20036;-39
2024/02/29 08:25:48;;;;;;;0.10;0.10;;;21.80;46.60;;;;;;5072355;28;20476;-40
2024/02/29 08:28:15;;;;;;;0.10;0.10;;;21.80;46.50;;;;;;5069547;28;20033;-41
2024/02/29 08:30:41;;;;;;;0.20;0.20;;;21.80;46.50;;;;;;5071769;28;20089;-40
2024/02/29 08:33:07;;;;;;;0.10;0.10;;;21.80;46.50;;;;;;5069765;28;20039;-37
2024/02/29 08:35:33;;;;;;;0.28;0.10;;;21.90;46.50;;;;;;5073915;28;20043;-40
2024/02/29 08:37:59;;;;;;;0.20;0.20;;;21.90;46.50;;;;;;5068502;28;20037;-40
2024/02/29 08:40:25;;;;;;;0.47;0.20;;;21.80;46.40;;;;;;5065037;28;20036;-40
2024/02/29 08:42:52;;;;;;;0.35;0.20;;;21.70;46.40;;;;;;5069501;28;20504;-39
2024/02/29 08:45:18;;;;;;;1.75;0.10;;;21.80;46.50;;;;;;5072956;28;20035;-43
2024/02/29 08:47:44;;;;;;;0.10;0.10;;;21.80;46.40;;;;;;5083903;28;20763;-40
2024/02/29 08:50:10;;;;;;;0.10;0.10;;;21.80;46.40;;;;;;5065286;28;20038;-40
2024/02/29 08:52:38;;;;;;;0.15;0.10;;;21.80;46.40;;;;;;5083630;28;20036;-41
2024/02/29 08:55:04;;;;;;;0.10;0.10;;;21.80;46.40;;;;;;5082690;28;20032;-38
2024/02/29 08:57:30;;;;;;;0.22;0.20;;;21.80;46.30;;;;;;5082419;28;20033;-40
2024/02/29 08:59:56;;;;;;;0.20;0.10;;;21.70;46.30;;;;;;5076201;28;20028;-41
2024/02/29 09:02:23;;;;;;;0.10;0.10;;;21.70;46.30;;;;;;5082795;28;20039;-40
2024/02/29 09:04:49;;;;;;;0.20;0.20;;;21.80;46.30;;;;;;5079921;28;20027;-40
2024/02/29 09:07:15;;;;;;;0.13;0.13;;;21.80;46.30;;;;;;5082687;28;20060;-42
2024/02/29 09:09:42;;;;;;;0.10;0.10;;;21.80;46.30;;;;;;5081767;28;20055;-43
2024/02/29 09:12:09;;;;;;;0.20;0.20;;;21.80;46.30;;;;;;5082368;28;20068;-41
2024/02/29 09:14:37;;;;;;;0.10;0.10;;;21.70;46.20;;;;;;5081730;28;20442;-41
2024/02/29 09:17:04;;;;;;;0.15;0.10;;;21.70;46.20;;;;;;5081478;28;20055;-44
2024/02/29 09:19:31;;;;;;;;;;;21.80;46.20;;;;;;5077944;28;20044;-42
2024/02/29 09:21:57;;;;;;;0.20;0.17;;;21.80;46.20;;;;;;5083364;28;19912;-40
2024/02/29 09:24:23;;;;;;;0.30;0.20;;;21.80;46.10;;;;;;5073572;28;20041;-42
2024/02/29 09:26:49;;;;;;;1.05;0.20;;;21.70;46.10;;;;;;5082349;28;20021;-41
2024/02/29 09:29:15;;;;;;;1.55;0.10;;;21.70;46.10;;;;;;5079514;28;20037;-40
2024/02/29 09:31:42;;;;;;;0.20;0.10;;;21.70;46.10;;;;;;5081175;28;20028;-41
2024/02/29 09:34:08;;;;;;;0.35;0.10;;;21.80;46.20;;;;;;5081806;28;20055;-41
2024/02/29 09:36:35;;;;;;;0.10;0.10;;;21.80;46.10;;;;;;5077429;28;20130;-39
2024/02/29 09:39:04;;;;;;;0.10;0.10;;;21.70;46.10;;;;;;5078606;28;20033;-41
2024/02/29 09:41:31;;;;;;;0.60;0.10;;;21.70;46.00;;;;;;5074069;28;20025;-44
2024/02/29 09:43:57;;;;;;;0.10;0.10;;;21.70;46.10;;;;;;5081533;28;20044;-41
2024/02/29 09:46:24;;;;;;;0.77;0.20;;;21.70;46.10;;;;;;5078722;28;20035;-41
2024/02/29 09:48:50;;;;;;;0.20;0.10;;;21.80;46.10;;;;;;5076644;28;20056;-39
2024/02/29 09:51:20;;;;;;;1.45;0.10;;;21.70;46.00;;;;;;5079671;28;20043;-42
2024/02/29 09:53:50;;;;;;;0.35;0.15;;;21.70;46.00;;;;;;5082002;28;20040;-40
2024/02/29 09:56:17;;;;;;;0.15;0.10;;;21.70;46.00;;;;;;5078734;28;20033;-41
2024/02/29 09:58:43;;;;;;;;;;;21.70;46.00;;;;;;5058815;28;20096;-40
2024/02/29 10:01:10;;;;;;;0.13;0.10;;;21.70;46.00;;;;;;5056314;28;19944;-42
2024/02/29 10:03:36;;;;;;;0.20;0.17;;;21.80;46.00;;;;;;5063354;28;20037;-40
2024/02/29 10:06:02;;;;;;;0.10;0.10;;;21.80;45.90;;;;;;5081666;28;20036;-40
2024/02/29 10:08:29;;;;;;;0.45;0.10;;;21.70;45.90;;;;;;5063939;28;20096;-41
2024/02/29 10:10:55;;;;;;;0.30;0.20;;;21.70;45.90;;;;;;5075057;28;20020;-43
2024/02/29 10:13:21;;;;;;;0.35;0.10;;;21.70;45.90;;;;;;5081066;28;20031;-41
2024/02/29 10:15:51;;;;;;;0.20;0.20;;;21.70;45.90;;;;;;5074511;28;20434;-42
2024/02/29 10:18:17;;;;;;;0.20;0.20;;;21.80;45.90;;;;;;5062887;28;20036;-43
2024/02/29 10:20:43;;;;;;;0.40;0.10;;;21.80;45.80;;;;;;5082116;28;20016;-40
2024/02/29 10:23:14;;;;;;;0.57;0.15;;;21.70;45.80;;;;;;5073976;28;20041;-39
2024/02/29 10:25:41;;;;;;;0.10;0.10;;;21.70;45.80;;;;;;5062751;28;20107;-41
2024/02/29 10:28:12;;;;;;;0.20;0.10;;;21.70;45.80;;;;;;5076750;28;20747;-41
2024/02/29 10:30:38;;;;;;;0.17;0.10;;;21.70;45.80;;;;;;5062690;28;20036;-41
2024/02/29 10:33:08;;;;;;;0.40;0.30;;;21.80;45.80;;;;;;5080014;28;20330;-41
2024/02/29 10:35:34;;;;;;;0.20;0.10;;;21.70;45.80;;;;;;5041286;28;20047;-41
2024/02/29 10:38:00;;;;;;;0.20;0.10;;;21.70;45.70;;;;;;5061105;28;20437;-39
2024/02/29 10:40:26;;;;;;;0.40;0.20;;;21.70;45.70;;;;;;5080743;28;20024;-36
2024/02/29 10:42:55;;;;;;;0.20;0.20;;;21.70;45.80;;;;;;5077736;28;20044;-40
2024/02/29 10:45:22;;;;;;;0.20;0.10;;;21.80;45.80;;;;;;5077456;28;20020;-41
2024/02/29 10:47:52;;;;;;;0.10;0.10;;;21.80;45.80;;;;;;5076131;28;20031;-40
2024/02/29 10:50:25;;;;;;;1.08;0.10;;;21.70;45.80;;;;;;5079937;28;20029;-39
2024/02/29 10:53:05;;;;;;;0.13;0.10;;;21.70;45.80;;;;;;5080187;28;20028;-39
2024/02/29 10:55:33;;;;;;;0.35;0.10;;;21.70;45.70;;;;;;5055985;28;20024;-41
2024/02/29 10:58:19;;;;;;;0.20;0.10;;;21.70;45.80;;;;;;5080943;28;20027;-40
2024/02/29 11:00:45;;;;;;;0.10;0.10;;;21.80;45.80;;;;;;5076188;28;20040;-40
2024/02/29 11:03:12;;;;;;;0.10;0.10;;;21.80;45.80;;;;;;5060942;28;20033;-37
2024/02/29 11:05:38;;;;;;;0.10;0.10;;;21.70;45.70;;;;;;5080558;28;20029;-40
2024/02/29 11:08:04;;;;;;;0.17;0.10;;;21.70;45.70;;;;;;5080443;28;20061;-39
2024/02/29 11:10:30;;;;;;;0.80;0.10;;;21.70;45.80;;;;;;5057488;28;20125;-40
2024/02/29 11:12:57;;;;;;;0.10;0.10;;;21.70;45.70;;;;;;5063243;28;20040;-40
2024/02/29 11:15:24;;;;;;;0.30;0.20;;;21.80;45.70;;;;;;5078204;28;20101;-40
2024/02/29 11:17:50;;;;;;;;;;;21.80;45.70;;;;;;5079398;28;20032;-41
2024/02/29 11:20:20;;;;;;;0.20;0.20;;;21.70;45.60;;;;;;5077707;28;19916;-39
2024/02/29 11:22:47;;;;;;;0.20;0.10;;;21.70;45.60;;;;;;5080120;28;20062;-38
2024/02/29 11:25:21;;;;;;;0.22;0.10;;;21.70;45.70;;;;;;5075038;28;20347;-40
2024/02/29 11:27:50;;;;;;;0.40;0.30;;;21.80;45.70;;;;;;5080432;28;20032;-41
2024/02/29 11:30:23;;;;;;;0.50;0.20;;;21.80;45.70;;;;;;5062202;28;20084;-43
2024/02/29 11:32:51;;;;;;;0.20;0.20;;;21.80;45.60;;;;;;5081180;28;20036;-39
2024/02/29 11:35:17;;;;;;;0.20;0.10;;;21.80;45.60;;;;;;5077537;28;20040;-39
2024/02/29 11:37:44;;;;;;;0.30;0.22;;;21.70;45.60;;;;;;5075800;28;20024;-38
2024/02/29 11:40:15;;;;;;;0.00;0.00;;;21.80;45.70;;;;;;5080786;28;20059;-40
2024/02/29 11:42:42;;;;;;;0.10;0.10;;;21.80;45.70;;;;;;5067108;28;20040;-39
2024/02/29 11:45:10;;;;;;;0.28;0.20;;;21.80;45.70;;;;;;5078379;28;20062;-42
2024/02/29 11:47:39;;;;;;;0.20;0.13;;;21.80;45.70;;;;;;5063026;28;20041;-40
2024/02/29 11:50:06;;;;;;;0.15;0.10;;;21.80;45.70;;;;;;5083406;28;20032;-39
2024/02/29 11:52:32;;;;;;;0.22;0.10;;;21.70;45.60;;;;;;5081122;28;20033;-39
2024/02/29 11:54:58;;;;;;;0.20;0.10;;;21.70;45.70;;;;;;5083655;28;20040;-37
2024/02/29 11:57:24;;;;;;;0.40;0.20;;;21.80;45.70;;;;;;5062023;28;20024;-40
2024/02/29 11:59:51;;;;;;;0.20;0.10;;;21.80;45.70;;;;;;5084705;28;20028;-40
2024/02/29 12:02:18;;;;;;;0.20;0.20;;;21.80;45.60;;;;;;5084252;28;20058;-39
2024/02/29 12:04:44;;;;;;;0.20;0.10;;;21.70;45.60;;;;;;5080737;28;20047;-40
2024/02/29 12:07:11;;;;;;;0.10;0.10;;;21.80;45.60;;;;;;5083102;28;20049;-40
2024/02/29 12:09:37;;;;;;;0.10;0.10;;;21.80;45.60;;;;;;5050121;28;20732;-39
2024/02/29 12:12:04;;;;;;;0.30;0.20;;;21.80;45.60;;;;;;5083571;28;20477;-39
2024/02/29 12:14:31;;;;;;;0.10;0.10;;;21.80;45.60;;;;;;5066540;28;20032;-40
2024/02/29 12:16:57;;;;;;;0.15;0.13;;;21.80;45.60;;;;;;5083416;28;20029;-37
2024/02/29 12:19:23;;;;;;;0.17;0.13;;;21.70;45.50;;;;;;5082684;28;20032;-40
2024/02/29 12:21:49;;;;;;;0.55;0.20;;;21.80;45.60;;;;;;5084520;28;20036;-40
2024/02/29 12:24:16;;;;;;;0.38;0.10;;;21.80;45.60;;;;;;5083321;28;20037;-40
2024/02/29 12:26:42;;;;;;;0.20;0.10;;;21.80;45.60;;;;;;5083943;28;20055;-40
2024/02/29 12:29:08;;;;;;;0.40;0.20;;;21.80;45.60;;;;;;5083405;28;20034;-39
2024/02/29 12:31:35;;;;;;;0.17;0.10;;;21.80;45.60;;;;;;5084166;28;20273;-40
2024/02/29 12:34:03;;;;;;;0.10;0.10;;;21.80;45.50;;;;;;5080232;28;20037;-42
2024/02/29 12:36:29;;;;;;;0.28;0.15;;;21.80;45.60;;;;;;5083334;28;20031;-39
2024/02/29 12:38:55;;;;;;;1.77;0.17;;;21.90;45.70;;;;;;5082535;28;20020;-39
2024/02/29 12:41:24;;;;;;;0.67;0.20;;;21.90;45.70;;;;;;5073008;28;20020;-40
2024/02/29 12:43:50;;;;;;;3.83;0.38;;;21.90;45.60;;;;;;5076166;28;20040;-39
2024/02/29 12:46:16;;;;;;;1.85;0.20;;;21.90;45.80;;;;;;5078475;28;20051;-39